createdAt,value
2022-09-24T00:02:24.398Z,21.30
2022-09-24T00:04:52.868Z,16.17
2022-09-24T00:07:21.390Z,16.50
2022-09-24T00:09:49.752Z,16.87
2022-09-24T00:12:19.590Z,19.70
2022-09-24T00:14:48.003Z,16.30
2022-09-24T00:17:16.494Z,16.10
2022-09-24T00:19:44.933Z,15.30
2022-09-24T00:22:13.382Z,17.63
2022-09-24T00:24:59.139Z,15.57
2022-09-24T00:27:29.295Z,14.97
2022-09-24T00:29:58.160Z,18.60
2022-09-24T00:32:27.441Z,13.93
2022-09-24T00:34:56.155Z,16.13
2022-09-24T00:37:24.649Z,16.40
2022-09-24T00:39:53.333Z,14.20
2022-09-24T00:42:23.051Z,11.83
2022-09-24T00:44:55.932Z,15.30
2022-09-24T00:47:37.550Z,16.07
2022-09-24T00:50:14.733Z,16.23
2022-09-24T00:52:47.247Z,15.13
2022-09-24T00:55:16.835Z,14.97
2022-09-24T00:57:46.537Z,13.77
2022-09-24T01:00:17.396Z,12.00
2022-09-24T01:02:48.905Z,16.10
2022-09-24T01:05:18.331Z,18.03
2022-09-24T01:07:48.968Z,14.83
2022-09-24T01:10:39.455Z,18.20
2022-09-24T01:13:18.743Z,18.20
2022-09-24T01:15:56.933Z,14.17
2022-09-24T01:18:34.970Z,15.17
2022-09-24T01:21:26.675Z,12.30
2022-09-24T01:24:25.393Z,13.93
2022-09-24T01:27:03.217Z,15.43
2022-09-24T01:29:42.374Z,12.37
2022-09-24T01:32:20.371Z,17.60
2022-09-24T01:34:53.464Z,16.70
2022-09-24T01:37:26.523Z,15.67
2022-09-24T01:39:57.894Z,13.60
2022-09-24T01:42:30.080Z,18.53
2022-09-24T01:45:02.594Z,18.00
2022-09-24T01:47:35.091Z,19.40
2022-09-24T01:50:05.090Z,17.03
2022-09-24T01:52:42.357Z,15.30
2022-09-24T01:55:15.219Z,16.17
2022-09-24T01:57:47.999Z,15.20
2022-09-24T02:00:20.846Z,16.40
2022-09-24T02:02:57.053Z,21.00
2022-09-24T02:05:30.064Z,16.57
2022-09-24T02:08:06.425Z,12.77
2022-09-24T02:10:39.603Z,13.17
2022-09-24T02:13:14.272Z,13.90
2022-09-24T02:15:48.062Z,12.83
2022-09-24T02:18:19.912Z,14.00
2022-09-24T02:20:50.324Z,14.47
2022-09-24T02:23:20.665Z,19.13
2022-09-24T02:25:53.750Z,18.57
2022-09-24T02:28:23.155Z,17.90
2022-09-24T02:30:59.399Z,15.63
2022-09-24T02:33:48.342Z,17.67
2022-09-24T02:36:17.636Z,14.77
2022-09-24T02:38:47.042Z,14.43
2022-09-24T02:41:16.287Z,13.37
2022-09-24T02:43:44.756Z,12.80
2022-09-24T02:46:14.785Z,14.90
2022-09-24T02:48:43.509Z,17.30
2022-09-24T02:51:15.047Z,12.03
2022-09-24T02:53:43.485Z,12.83
2022-09-24T02:56:11.867Z,12.57
2022-09-24T02:58:40.285Z,12.30
2022-09-24T03:01:08.746Z,12.77
2022-09-24T03:03:38.770Z,13.90
2022-09-24T03:06:07.977Z,12.17
2022-09-24T03:08:36.641Z,12.77
2022-09-24T03:11:05.088Z,15.97
2022-09-24T03:13:34.894Z,13.70
2022-09-24T03:16:03.873Z,14.37
2022-09-24T03:18:32.408Z,12.23
2022-09-24T03:21:05.986Z,11.70
2022-09-24T03:23:34.794Z,13.73
2022-09-24T03:26:03.434Z,16.80
2022-09-24T03:28:32.793Z,13.17
2022-09-24T03:31:00.382Z,14.30
2022-09-24T03:33:30.061Z,15.20
2022-09-24T03:35:59.418Z,13.47
2022-09-24T03:38:30.161Z,13.90
2022-09-24T03:40:59.385Z,12.77
2022-09-24T03:43:28.417Z,14.77
2022-09-24T03:45:57.353Z,14.23
2022-09-24T03:48:27.718Z,13.50
2022-09-24T03:50:56.282Z,15.77
2022-09-24T03:53:24.926Z,13.70
2022-09-24T03:55:57.717Z,12.73
2022-09-24T03:58:26.632Z,15.23
2022-09-24T04:00:55.556Z,13.57
2022-09-24T04:03:24.389Z,13.30
2022-09-24T04:05:52.889Z,14.40
2022-09-24T04:08:21.649Z,13.77
2022-09-24T04:10:51.179Z,19.23
2022-09-24T04:13:21.462Z,13.33
2022-09-24T04:15:50.535Z,17.40
2022-09-24T04:18:19.842Z,19.93
2022-09-24T04:20:48.390Z,14.53
2022-09-24T04:23:17.140Z,13.13
2022-09-24T04:25:45.572Z,15.33
2022-09-24T04:28:14.002Z,14.20
2022-09-24T04:30:43.891Z,14.37
2022-09-24T04:33:12.704Z,14.63
2022-09-24T04:35:41.136Z,13.27
2022-09-24T04:38:11.740Z,15.43
2022-09-24T04:40:40.482Z,12.73
2022-09-24T04:43:09.220Z,15.53
2022-09-24T04:45:38.673Z,14.87
2022-09-24T04:48:08.659Z,13.80
2022-09-24T04:50:41.947Z,15.33
2022-09-24T04:53:13.434Z,15.23
2022-09-24T04:55:41.974Z,17.17
2022-09-24T04:58:10.808Z,11.40
2022-09-24T05:00:39.422Z,19.00
2022-09-24T05:03:09.367Z,20.17
2022-09-24T05:05:37.913Z,16.97
2022-09-24T05:08:06.494Z,16.97
2022-09-24T05:10:34.983Z,18.37
2022-09-24T05:13:03.448Z,22.07
2022-09-24T05:15:32.251Z,20.20
2022-09-24T05:18:00.665Z,22.20
2022-09-24T05:20:30.499Z,22.83
2022-09-24T05:22:58.959Z,18.60
2022-09-24T05:25:27.424Z,17.03
2022-09-24T05:27:55.757Z,15.30
2022-09-24T05:30:26.148Z,15.53
2022-09-24T05:32:54.648Z,14.53
2022-09-24T05:35:24.964Z,15.23
2022-09-24T05:37:55.186Z,17.77
2022-09-24T05:40:41.173Z,15.00
2022-09-24T05:43:09.899Z,18.40
2022-09-24T05:45:38.610Z,14.40
2022-09-24T05:48:07.200Z,16.67
2022-09-24T05:50:35.842Z,17.03
2022-09-24T05:53:08.046Z,14.20
2022-09-24T05:55:36.944Z,19.53
2022-09-24T05:58:07.550Z,16.67
2022-09-24T06:00:37.335Z,15.27
2022-09-24T06:03:08.229Z,19.20
2022-09-24T06:05:37.002Z,13.80
2022-09-24T06:08:08.943Z,19.80
2022-09-24T06:10:38.287Z,17.93
2022-09-24T06:13:06.949Z,16.67
2022-09-24T06:15:36.501Z,16.77
2022-09-24T06:18:04.938Z,13.97
2022-09-24T06:20:34.086Z,17.57
2022-09-24T06:23:03.816Z,11.43
2022-09-24T06:25:33.897Z,11.70
2022-09-24T06:28:04.459Z,11.20
2022-09-24T06:30:36.036Z,11.93
2022-09-24T06:33:05.876Z,14.37
2022-09-24T06:35:36.219Z,13.63
2022-09-24T06:38:05.330Z,15.50
2022-09-24T06:40:37.375Z,16.33
2022-09-24T06:43:07.009Z,12.30
2022-09-24T06:45:36.414Z,12.43
2022-09-24T06:48:06.631Z,14.37
2022-09-24T06:50:36.455Z,12.70
2022-09-24T06:53:07.732Z,14.97
2022-09-24T06:55:38.726Z,10.43
2022-09-24T06:58:08.459Z,12.67
2022-09-24T07:00:37.687Z,11.30
2022-09-24T07:03:06.787Z,11.93
2022-09-24T07:05:40.948Z,12.47
2022-09-24T07:08:11.187Z,9.17
2022-09-24T07:10:44.286Z,17.10
2022-09-24T07:13:14.407Z,10.53
2022-09-24T07:15:43.483Z,10.23
2022-09-24T07:18:12.209Z,10.63
2022-09-24T07:20:41.242Z,8.80
2022-09-24T07:23:11.315Z,12.80
2022-09-24T07:25:41.348Z,8.77
2022-09-24T07:28:12.022Z,12.07
2022-09-24T07:30:41.584Z,8.60
2022-09-24T07:33:10.803Z,11.43
2022-09-24T07:35:40.540Z,9.57
2022-09-24T07:38:12.401Z,9.27
2022-09-24T07:40:42.753Z,9.17
2022-09-24T07:43:14.157Z,8.80
2022-09-24T07:45:43.376Z,10.43
2022-09-24T07:48:13.092Z,8.33
2022-09-24T07:50:42.926Z,9.30
2022-09-24T07:53:12.903Z,10.33
2022-09-24T07:55:43.633Z,6.97
2022-09-24T07:58:15.236Z,6.30
2022-09-24T08:00:44.088Z,7.57
2022-09-24T08:03:12.580Z,7.30
2022-09-24T08:05:45.798Z,10.83
2022-09-24T08:08:15.178Z,6.77
2022-09-24T08:10:45.254Z,8.80
2022-09-24T08:13:13.999Z,7.23
2022-09-24T08:15:42.565Z,9.30
2022-09-24T08:18:11.386Z,6.47
2022-09-24T08:20:40.314Z,4.67
2022-09-24T08:23:11.372Z,6.63
2022-09-24T08:25:39.926Z,4.50
2022-09-24T08:28:12.595Z,5.10
2022-09-24T08:30:42.090Z,6.43
2022-09-24T08:33:10.690Z,3.93
2022-09-24T08:35:40.389Z,4.23
2022-09-24T08:38:10.104Z,4.97
2022-09-24T08:40:41.722Z,4.83
2022-09-24T08:43:26.097Z,5.77
2022-09-24T08:46:16.140Z,5.97
2022-09-24T08:48:49.752Z,4.73
2022-09-24T08:51:20.579Z,9.53
2022-09-24T08:53:54.764Z,3.97
2022-09-24T08:56:28.248Z,3.80
2022-09-24T08:59:01.650Z,4.93
2022-09-24T09:01:38.912Z,3.70
2022-09-24T09:04:24.000Z,3.60
2022-09-24T09:07:03.275Z,4.20
2022-09-24T09:09:43.485Z,2.90
2022-09-24T09:12:17.335Z,4.03
2022-09-24T09:14:51.709Z,3.43
2022-09-24T09:17:32.809Z,4.23
2022-09-24T09:20:05.188Z,3.07
2022-09-24T09:22:41.164Z,5.40
2022-09-24T09:25:20.056Z,4.30
2022-09-24T09:27:58.871Z,4.47
2022-09-24T09:30:36.050Z,4.50
2022-09-24T09:33:27.930Z,3.13
2022-09-24T09:36:04.429Z,6.40
2022-09-24T09:38:43.321Z,5.57
2022-09-24T09:41:21.256Z,2.67
2022-09-24T09:43:49.852Z,4.60
2022-09-24T09:46:24.949Z,3.67
2022-09-24T09:49:00.804Z,4.07
2022-09-24T09:51:36.806Z,4.73
2022-09-24T09:54:06.445Z,5.23
2022-09-24T09:56:39.638Z,24.07
2022-09-24T09:59:18.055Z,3.73
2022-09-24T10:01:56.008Z,3.80
2022-09-24T10:04:34.883Z,6.57
2022-09-24T10:07:09.916Z,4.43
2022-09-24T10:09:40.298Z,3.70
2022-09-24T10:12:18.815Z,4.23
2022-09-24T10:14:59.648Z,3.83
2022-09-24T10:17:35.679Z,4.57
2022-09-24T10:20:10.521Z,2.87
2022-09-24T10:22:40.475Z,4.03
2022-09-24T10:25:21.620Z,3.60
2022-09-24T10:27:50.738Z,5.30
2022-09-24T10:30:33.918Z,3.43
2022-09-24T10:33:05.460Z,4.47
2022-09-24T10:35:36.315Z,3.47
2022-09-24T10:38:16.816Z,5.70
2022-09-24T10:40:45.438Z,4.37
2022-09-24T10:43:18.897Z,5.23
2022-09-24T10:46:16.286Z,3.37
2022-09-24T10:48:54.515Z,3.90
2022-09-24T10:51:32.776Z,3.77
2022-09-24T10:54:20.169Z,3.27
2022-09-24T10:56:52.057Z,2.60
2022-09-24T10:59:41.552Z,2.33
2022-09-24T11:02:31.159Z,4.13
2022-09-24T11:05:05.665Z,7.17
2022-09-24T11:07:55.830Z,3.90
2022-09-24T11:10:37.383Z,2.30
2022-09-24T11:13:17.579Z,3.27
2022-09-24T11:16:15.771Z,3.70
2022-09-24T11:18:55.611Z,2.13
2022-09-24T11:21:34.804Z,3.17
2022-09-24T11:24:25.833Z,3.80
2022-09-24T11:27:06.023Z,2.77
2022-09-24T11:29:54.444Z,2.83
2022-09-24T11:32:29.389Z,2.23
2022-09-24T11:35:16.676Z,9.13
2022-09-24T11:37:57.891Z,27.83
2022-09-24T11:40:39.459Z,4.73
2022-09-24T11:43:34.083Z,137.90
2022-09-24T11:46:18.005Z,18.90
2022-09-24T11:49:15.231Z,2.90
2022-09-24T11:51:56.643Z,1.97
2022-09-24T11:54:32.049Z,4.37
2022-09-24T11:57:07.911Z,2.07
2022-09-24T11:59:44.600Z,3.23
2022-09-24T12:02:19.519Z,3.83
2022-09-24T12:05:01.447Z,2.63
2022-09-24T12:07:36.276Z,2.27
2022-09-24T12:10:25.255Z,2.43
2022-09-24T12:12:56.474Z,2.47
2022-09-24T12:15:28.796Z,4.10
2022-09-24T12:18:02.737Z,5.70
2022-09-24T12:20:32.780Z,6.53
2022-09-24T12:23:04.859Z,5.77
2022-09-24T12:25:41.709Z,2.20
2022-09-24T12:28:13.214Z,3.70
2022-09-24T12:31:07.400Z,3.67
2022-09-24T12:33:45.161Z,1.80
2022-09-24T12:36:19.494Z,1.97
2022-09-24T12:38:53.851Z,1.87
2022-09-24T12:41:34.493Z,2.77
2022-09-24T12:44:15.159Z,2.37
2022-09-24T12:46:50.206Z,2.40
2022-09-24T12:49:28.226Z,1.80
2022-09-24T12:51:59.028Z,2.13
2022-09-24T12:54:30.874Z,2.20
2022-09-24T12:57:15.180Z,2.90
2022-09-24T12:59:51.785Z,1.90
2022-09-24T13:02:23.887Z,1.40
2022-09-24T13:05:07.008Z,2.87
2022-09-24T13:07:37.230Z,1.87
2022-09-24T13:10:22.858Z,5.43
2022-09-24T13:12:53.087Z,1.97
2022-09-24T13:15:37.124Z,1.50
2022-09-24T13:18:24.412Z,1.63
2022-09-24T13:21:05.800Z,1.87
2022-09-24T13:23:45.814Z,1.70
2022-09-24T13:26:29.826Z,2.13
2022-09-24T13:29:01.703Z,2.40
2022-09-24T13:31:47.951Z,1.27
2022-09-24T13:34:21.499Z,1.57
2022-09-24T13:36:57.756Z,1.30
2022-09-24T13:39:34.491Z,1.67
2022-09-24T13:42:09.903Z,1.50
2022-09-24T13:44:43.843Z,3.30
2022-09-24T13:47:17.074Z,1.30
2022-09-24T13:49:49.351Z,2.30
2022-09-24T13:52:30.379Z,2.27
2022-09-24T13:55:04.049Z,2.70
2022-09-24T13:57:32.505Z,1.53
2022-09-24T14:00:16.476Z,4.43
2022-09-24T14:02:53.946Z,2.50
2022-09-24T14:05:23.597Z,1.50
2022-09-24T14:08:02.738Z,1.27
2022-09-24T14:10:31.267Z,1.57
2022-09-24T14:13:05.272Z,1.30
2022-09-24T14:15:36.432Z,1.33
2022-09-24T14:18:08.096Z,3.37
2022-09-24T14:20:40.605Z,4.10
2022-09-24T14:23:19.509Z,1.27
2022-09-24T14:25:50.320Z,2.37
2022-09-24T14:28:20.601Z,2.63
2022-09-24T14:30:55.012Z,1.30
2022-09-24T14:33:26.430Z,3.07
2022-09-24T14:35:57.518Z,1.83
2022-09-24T14:38:29.611Z,1.60
2022-09-24T14:41:03.356Z,1.87
2022-09-24T14:43:38.750Z,1.50
2022-09-24T14:46:16.037Z,1.60
2022-09-24T14:48:44.867Z,1.30
2022-09-24T14:51:26.095Z,2.63
2022-09-24T14:54:02.330Z,1.83
2022-09-24T14:56:33.192Z,4.93
2022-09-24T14:59:02.784Z,1.90
2022-09-24T15:01:34.500Z,3.00
2022-09-24T15:04:05.752Z,2.33
2022-09-24T15:06:36.663Z,2.30
2022-09-24T15:09:07.652Z,2.00
2022-09-24T15:11:43.132Z,3.53
2022-09-24T15:14:15.919Z,3.03
2022-09-24T15:16:48.100Z,3.17
2022-09-24T15:19:20.050Z,14.27
2022-09-24T15:21:49.981Z,22.07
2022-09-24T15:24:18.503Z,15.10
2022-09-24T15:26:48.604Z,11.70
2022-09-24T15:29:25.089Z,9.47
2022-09-24T15:31:56.741Z,43.80
2022-09-24T15:34:25.318Z,54.00
2022-09-24T15:36:56.666Z,27.03
2022-09-24T15:39:27.713Z,39.93
2022-09-24T15:41:56.199Z,9.27
2022-09-24T15:44:29.978Z,10.43
2022-09-24T15:47:03.266Z,7.87
2022-09-24T15:49:32.333Z,19.20
2022-09-24T15:52:04.085Z,16.70
2022-09-24T15:54:34.814Z,9.60
2022-09-24T15:57:03.304Z,12.70
2022-09-24T15:59:32.113Z,9.03
2022-09-24T16:02:05.537Z,11.00
2022-09-24T16:04:33.978Z,8.90
2022-09-24T16:07:02.589Z,10.57
2022-09-24T16:09:31.161Z,7.60
2022-09-24T16:11:59.562Z,8.50
2022-09-24T16:14:28.852Z,8.20
2022-09-24T16:16:57.304Z,5.60
2022-09-24T16:19:27.310Z,5.10
2022-09-24T16:21:55.907Z,3.83
2022-09-24T16:24:24.363Z,4.20
2022-09-24T16:26:53.016Z,4.87
2022-09-24T16:29:21.571Z,3.53
2022-09-24T16:31:50.229Z,4.30
2022-09-24T16:34:18.955Z,6.73
2022-09-24T16:36:49.306Z,5.10
2022-09-24T16:39:17.721Z,4.53
2022-09-24T16:41:46.371Z,4.30
2022-09-24T16:44:15.309Z,4.10
2022-09-24T16:46:44.181Z,6.73
2022-09-24T16:49:12.890Z,5.83
2022-09-24T16:51:41.554Z,9.47
2022-09-24T16:54:12.829Z,6.20
2022-09-24T16:56:41.435Z,5.40
2022-09-24T16:59:11.788Z,6.03
2022-09-24T17:01:42.640Z,5.50
2022-09-24T17:04:11.113Z,6.13
2022-09-24T17:06:39.797Z,6.37
2022-09-24T17:09:25.603Z,18.10
2022-09-24T17:11:56.534Z,16.77
2022-09-24T17:14:26.450Z,17.60
2022-09-24T17:16:54.935Z,18.73
2022-09-24T17:19:23.418Z,19.53
2022-09-24T17:21:52.421Z,24.80
2022-09-24T17:24:21.931Z,17.43
2022-09-24T17:26:50.918Z,23.77
2022-09-24T17:29:22.520Z,17.10
2022-09-24T17:31:51.226Z,19.67
2022-09-24T17:34:19.858Z,21.77
2022-09-24T17:36:50.812Z,23.97
2022-09-24T17:39:19.283Z,38.20
2022-09-24T17:41:47.734Z,66.97
2022-09-24T17:44:17.475Z,51.30
2022-09-24T17:46:47.549Z,45.90
2022-09-24T17:49:16.712Z,40.10
2022-09-24T17:51:48.194Z,38.10
2022-09-24T17:54:19.223Z,31.60
2022-09-24T17:56:47.983Z,27.93
2022-09-24T17:59:16.938Z,26.37
2022-09-24T18:01:47.349Z,26.80
2022-09-24T18:04:18.086Z,26.47
2022-09-24T18:06:48.495Z,25.83
2022-09-24T18:09:18.308Z,23.37
2022-09-24T18:11:48.758Z,25.83
2022-09-24T18:14:18.665Z,25.97
2022-09-24T18:16:49.604Z,26.70
2022-09-24T18:19:18.830Z,32.13
2022-09-24T18:21:49.462Z,31.30
2022-09-24T18:24:17.993Z,30.13
2022-09-24T18:26:51.307Z,33.80
2022-09-24T18:29:21.464Z,33.17
2022-09-24T18:31:51.925Z,33.30
2022-09-24T18:34:20.412Z,31.07
2022-09-24T18:36:48.906Z,401.47
2022-09-24T18:39:24.706Z,290.90
2022-09-24T18:41:53.941Z,621.60
2022-09-24T18:44:22.396Z,347.20
2022-09-24T18:46:52.710Z,35.80
2022-09-24T18:49:21.334Z,244.83
2022-09-24T18:51:52.249Z,273.73
2022-09-24T18:54:20.656Z,987.23
2022-09-24T18:56:49.144Z,782.00
2022-09-24T18:59:19.462Z,94.93
2022-09-24T19:01:49.598Z,610.67
2022-09-24T19:04:20.100Z,354.03
2022-09-24T19:06:50.843Z,684.30
2022-09-24T19:09:21.473Z,102.50
2022-09-24T19:11:50.178Z,34.97
2022-09-24T19:14:19.771Z,33.67
2022-09-24T19:16:48.800Z,30.57
2022-09-24T19:19:18.609Z,29.87
2022-09-24T19:21:47.180Z,680.43
2022-09-24T19:24:15.635Z,458.53
2022-09-24T19:26:46.843Z,123.73
2022-09-24T19:29:15.301Z,930.03
2022-09-24T19:31:45.791Z,1325.40
2022-09-24T19:34:15.597Z,341.27
2022-09-24T19:36:45.751Z,77.57
2022-09-24T19:39:15.893Z,46.63
2022-09-24T19:41:45.002Z,47.27
2022-09-24T19:44:13.846Z,40.30
2022-09-24T19:46:43.172Z,38.37
2022-09-24T19:49:12.030Z,37.30
2022-09-24T19:51:41.041Z,36.73
2022-09-24T19:54:11.907Z,33.10
2022-09-24T19:56:41.703Z,29.93
2022-09-24T19:59:11.912Z,30.47
2022-09-24T20:01:40.791Z,29.80
2022-09-24T20:04:10.372Z,38.83
2022-09-24T20:06:39.910Z,37.13
2022-09-24T20:09:09.086Z,32.00
2022-09-24T20:11:39.146Z,28.30
2022-09-24T20:14:09.338Z,31.00
2022-09-24T20:16:38.343Z,33.00
2022-09-24T20:19:06.930Z,684.07
2022-09-24T20:21:36.349Z,264.67
2022-09-24T20:24:07.164Z,533.80
2022-09-24T20:26:53.920Z,581.73
2022-09-24T20:29:24.653Z,935.83
2022-09-24T20:31:56.371Z,76.33
2022-09-24T20:34:26.682Z,31.47
2022-09-24T20:36:55.252Z,29.47
2022-09-24T20:39:23.878Z,37.13
2022-09-24T20:41:52.378Z,36.50
2022-09-24T20:44:22.302Z,36.60
2022-09-24T20:46:52.449Z,35.63
2022-09-24T20:49:23.140Z,31.53
2022-09-24T20:51:56.693Z,28.13
2022-09-24T20:54:26.599Z,34.77
2022-09-24T20:56:55.135Z,34.17
2022-09-24T20:59:25.281Z,30.07
2022-09-24T21:01:55.967Z,31.83
2022-09-24T21:04:25.117Z,31.20
2022-09-24T21:06:54.835Z,30.43
2022-09-24T21:09:23.621Z,29.50
2022-09-24T21:11:54.597Z,30.63
2022-09-24T21:14:23.579Z,30.43
2022-09-24T21:16:54.451Z,33.40
2022-09-24T21:19:24.662Z,35.53
2022-09-24T21:21:54.057Z,39.80
2022-09-24T21:24:26.311Z,39.70
2022-09-24T21:26:59.261Z,35.47
2022-09-24T21:29:27.811Z,34.43
2022-09-24T21:31:56.196Z,33.23
2022-09-24T21:34:26.620Z,32.07
2022-09-24T21:36:55.236Z,37.80
2022-09-24T21:39:26.875Z,30.13
2022-09-24T21:41:59.711Z,35.43
2022-09-24T21:44:32.442Z,30.57
2022-09-24T21:47:01.081Z,36.30
2022-09-24T21:49:36.875Z,31.60
2022-09-24T21:52:06.905Z,36.27
2022-09-24T21:54:36.127Z,42.33
2022-09-24T21:57:04.593Z,42.53
2022-09-24T21:59:50.523Z,54.60
2022-09-24T22:02:19.147Z,45.77
2022-09-24T22:04:49.412Z,51.30
2022-09-24T22:07:18.469Z,50.23
2022-09-24T22:09:46.926Z,49.03
2022-09-24T22:12:15.610Z,52.43
2022-09-24T22:14:45.260Z,49.07
2022-09-24T22:17:14.397Z,54.97
2022-09-24T22:19:43.103Z,51.27
2022-09-24T22:22:12.919Z,52.60
2022-09-24T22:24:41.520Z,55.33
2022-09-24T22:27:10.089Z,48.73
2022-09-24T22:29:38.540Z,49.97
2022-09-24T22:32:07.040Z,52.30
2022-09-24T22:34:52.640Z,51.50
2022-09-24T22:37:23.015Z,48.53
2022-09-24T22:39:51.502Z,48.20
2022-09-24T22:42:20.467Z,41.73
2022-09-24T22:44:48.927Z,41.33
2022-09-24T22:47:17.377Z,39.60
2022-09-24T22:49:45.861Z,40.43
2022-09-24T22:52:14.359Z,41.37
2022-09-24T22:54:44.232Z,323.37
2022-09-24T22:57:12.645Z,740.97
2022-09-24T22:59:41.367Z,357.57
2022-09-24T23:02:13.194Z,56.73
2022-09-24T23:04:42.181Z,42.50
2022-09-24T23:07:10.922Z,45.37
2022-09-24T23:09:39.464Z,42.40
2022-09-24T23:12:09.728Z,49.90
2022-09-24T23:14:38.321Z,45.77
2022-09-24T23:17:07.744Z,47.47
2022-09-24T23:19:49.691Z,674.40
2022-09-24T23:22:21.521Z,648.00
2022-09-24T23:24:50.935Z,347.57
2022-09-24T23:27:21.426Z,315.00
2022-09-24T23:29:49.970Z,84.70
2022-09-24T23:32:18.495Z,121.97
2022-09-24T23:34:47.616Z,42.53
2022-09-24T23:37:16.036Z,40.00
2022-09-24T23:39:44.474Z,43.27
2022-09-24T23:42:12.896Z,44.30
2022-09-24T23:44:42.778Z,41.47
2022-09-24T23:47:11.176Z,537.87
2022-09-24T23:49:39.645Z,380.43
2022-09-24T23:52:08.105Z,529.17
2022-09-24T23:54:37.538Z,684.63
2022-09-24T23:57:06.632Z,116.57
2022-09-24T23:59:35.305Z,42.67
